Karla A — TCCR8 — position and weather

sailwx.info

Track history (hours):
 
Tides and Currents Weather Stations Pressure Air Temp Water Temp Dewpoint Dewpoint Depression Visibility Wind Speed Wind Dir Waves Ship Positions

Karla A

Last reported at 2014-Jul-30 18:33 UTC. Time now 2014-Jul-30 19:16 UTC.
Position N 33°51' E 033°27'.

Length 155 m; draft 8.7 m.

Type: Ship (hazmat cat A). MMSI: 271000744.

Date/timePositionNaut miles runAvg speedWind from/ knotsBaromVisibWave heightAir tempDewpointWater temp
2014-Jul-30 18:33N 33°51' E 033°27'1414.1
2014-Jul-30 17:33N 33°41' E 033°15'1212.2
2014-Jul-30 16:33N 33°30' E 033°09'1413.8
2014-Jul-30 15:33N 33°17' E 033°15'1413.8
2014-Jul-30 14:33N 33°04' E 033°20'15 3.8
2014-Jul-30 10:33N 32°50' E 033°16'1715.7
2014-Jul-30 09:29N 32°34' E 033°08'1915.9
2014-Jul-30 08:18N 32°17' E 032°60'1215.6
2014-Jul-30 07:33N 32°06' E 032°54'1615.5
2014-Jul-30 06:33N 31°52' E 032°47'1615.4
2014-Jul-30 05:30N 31°41' E 032°33'29 5.6
2014-Jul-30 00:15N 31°13' E 032°21'0 0.0
2014-Jul-29 23:12N 31°13' E 032°21'0 0.0
2014-Jul-29 22:26N 31°13' E 032°21'0 0.0
2014-Jul-29 21:32N 31°13' E 032°21'0 0.0
2014-Jul-29 20:29N 31°13' E 032°21'0 0.0
2014-Jul-29 17:28N 31°13' E 032°21'0 0.0
2014-Jul-29 12:31N 31°13' E 032°21'2 2.5
2014-Jul-29 11:32N 31°15' E 032°22'7 6.7
2014-Jul-29 10:33N 31°22' E 032°20'2 2.5
2014-Jul-29 09:34N 31°22' E 032°17'0 0.0
2014-Jul-29 08:33N 31°22' E 032°17'0 0.0
2014-Jul-29 07:33N 31°22' E 032°17'0 0.0
2014-Jul-29 02:30N 31°22' E 032°17'0 0.0
2014-Jul-29 01:33N 31°22' E 032°17'0 0.0
2014-Jul-29 00:05N 31°22' E 032°17'0 0.0
2014-Jul-28 23:32N 31°22' E 032°17'0 0.0
2014-Jul-28 22:32N 31°22' E 032°17'0 0.0
2014-Jul-28 21:22N 31°22' E 032°17'0 0.0
2014-Jul-28 20:31N 31°22' E 032°17'0 0.0
2014-Jul-28 19:33N 31°22' E 032°17'0 0.0
2014-Jul-28 18:33N 31°22' E 032°17'0 0.0
2014-Jul-28 17:33N 31°22' E 032°17'0 0.0
2014-Jul-28 16:32N 31°22' E 032°17'0 0.0
2014-Jul-28 15:32N 31°22' E 032°17'0 0.0
2014-Jul-28 14:25N 31°22' E 032°17'0 0.0
2014-Jul-28 13:31N 31°22' E 032°17'0 0.0
2014-Jul-28 12:24N 31°22' E 032°17'5 0.3
2014-Jul-27 21:07N 31°19' E 032°22'5 9.1
2014-Jul-27 20:33N 31°15' E 032°18'0 0.2
2014-Jul-27 19:23N 31°15' E 032°18'0 0.0
2014-Jul-27 17:32N 31°15' E 032°18'0 0.0
2014-Jul-27 16:29N 31°15' E 032°18'  
2014-Jul-24 20:29N 31°21' E 032°17'1111.9
2014-Jul-24 19:33N 31°32' E 032°21'1513.0
2014-Jul-24 18:25N 31°42' E 032°34'1213.8
2014-Jul-24 17:33N 31°51' E 032°42'1414.4
2014-Jul-24 16:33N 32°02' E 032°54'1714.6
2014-Jul-24 15:24N 32°13' E 033°09'1314.6
2014-Jul-24 14:31N 32°22' E 033°20'1414.4
2014-Jul-24 13:33N 32°32' E 033°32'1414.0
2014-Jul-24 12:33N 32°42' E 033°44'1413.7
2014-Jul-24 11:33N 32°51' E 033°56'1413.6
2014-Jul-24 10:33N 33°01' E 034°07'1413.8
2014-Jul-24 09:33N 33°10' E 034°19'1414.3
2014-Jul-24 08:33N 33°20' E 034°31'1414.4
2014-Jul-24 07:33N 33°30' E 034°44'46 3.8
2014-Jul-23 19:25N 33°56' E 035°30'5110.4
2014-Jul-23 14:33N 34°42' E 035°04'1313.0
2014-Jul-23 13:33N 34°55' E 035°01'  
Track history (hours):
 
Tides and Currents Weather Stations Pressure Air Temp Water Temp Dewpoint Dewpoint Depression Visibility Wind Speed Wind Dir Waves Ship Positions

Karla A

Last reported at 2014-Jul-30 18:33 UTC. Time now 2014-Jul-30 19:16 UTC.
Position N 33°51' E 033°27'.

Length 155 m; draft 8.7 m.

Type: Ship (hazmat cat A). MMSI: 271000744.

Date/timePositionNaut miles runAvg speedWind from/ knotsBaromVisibWave heightAir tempDewpointWater temp
2014-Jul-30 18:33N 33°51' E 033°27'1414.1
2014-Jul-30 17:33N 33°41' E 033°15'1212.2
2014-Jul-30 16:33N 33°30' E 033°09'1413.8
2014-Jul-30 15:33N 33°17' E 033°15'1413.8
2014-Jul-30 14:33N 33°04' E 033°20'15 3.8
2014-Jul-30 10:33N 32°50' E 033°16'1715.7
2014-Jul-30 09:29N 32°34' E 033°08'1915.9
2014-Jul-30 08:18N 32°17' E 032°60'1215.6
2014-Jul-30 07:33N 32°06' E 032°54'1615.5
2014-Jul-30 06:33N 31°52' E 032°47'1615.4
2014-Jul-30 05:30N 31°41' E 032°33'29 5.6
2014-Jul-30 00:15N 31°13' E 032°21'0 0.0
2014-Jul-29 23:12N 31°13' E 032°21'0 0.0
2014-Jul-29 22:26N 31°13' E 032°21'0 0.0
2014-Jul-29 21:32N 31°13' E 032°21'0 0.0
2014-Jul-29 20:29N 31°13' E 032°21'0 0.0
2014-Jul-29 17:28N 31°13' E 032°21'0 0.0
2014-Jul-29 12:31N 31°13' E 032°21'2 2.5
2014-Jul-29 11:32N 31°15' E 032°22'7 6.7
2014-Jul-29 10:33N 31°22' E 032°20'2 2.5
2014-Jul-29 09:34N 31°22' E 032°17'0 0.0
2014-Jul-29 08:33N 31°22' E 032°17'0 0.0
2014-Jul-29 07:33N 31°22' E 032°17'0 0.0
2014-Jul-29 02:30N 31°22' E 032°17'0 0.0
2014-Jul-29 01:33N 31°22' E 032°17'0 0.0
2014-Jul-29 00:05N 31°22' E 032°17'0 0.0
2014-Jul-28 23:32N 31°22' E 032°17'0 0.0
2014-Jul-28 22:32N 31°22' E 032°17'0 0.0
2014-Jul-28 21:22N 31°22' E 032°17'0 0.0
2014-Jul-28 20:31N 31°22' E 032°17'0 0.0
2014-Jul-28 19:33N 31°22' E 032°17'0 0.0
2014-Jul-28 18:33N 31°22' E 032°17'0 0.0
2014-Jul-28 17:33N 31°22' E 032°17'0 0.0
2014-Jul-28 16:32N 31°22' E 032°17'0 0.0
2014-Jul-28 15:32N 31°22' E 032°17'0 0.0
2014-Jul-28 14:25N 31°22' E 032°17'0 0.0
2014-Jul-28 13:31N 31°22' E 032°17'0 0.0
2014-Jul-28 12:24N 31°22' E 032°17'5 0.3
2014-Jul-27 21:07N 31°19' E 032°22'5 9.1
2014-Jul-27 20:33N 31°15' E 032°18'0 0.2
2014-Jul-27 19:23N 31°15' E 032°18'0 0.0
2014-Jul-27 17:32N 31°15' E 032°18'0 0.0
2014-Jul-27 16:29N 31°15' E 032°18'  
2014-Jul-24 20:29N 31°21' E 032°17'1111.9
2014-Jul-24 19:33N 31°32' E 032°21'1513.0
2014-Jul-24 18:25N 31°42' E 032°34'1213.8
2014-Jul-24 17:33N 31°51' E 032°42'1414.4
2014-Jul-24 16:33N 32°02' E 032°54'1714.6
2014-Jul-24 15:24N 32°13' E 033°09'1314.6
2014-Jul-24 14:31N 32°22' E 033°20'1414.4
2014-Jul-24 13:33N 32°32' E 033°32'1414.0
2014-Jul-24 12:33N 32°42' E 033°44'1413.7
2014-Jul-24 11:33N 32°51' E 033°56'1413.6
2014-Jul-24 10:33N 33°01' E 034°07'1413.8
2014-Jul-24 09:33N 33°10' E 034°19'1414.3
2014-Jul-24 08:33N 33°20' E 034°31'1414.4
2014-Jul-24 07:33N 33°30' E 034°44'46 3.8
2014-Jul-23 19:25N 33°56' E 035°30'5110.4
2014-Jul-23 14:33N 34°42' E 035°04'1313.0
2014-Jul-23 13:33N 34°55' E 035°01'  

Dump ship's entire track history